Time;durP1;ratioP1;P1;durP2;ratioP2;P2;SDS_P1;SDS_P2;PMS_P1;PMS_P2;Temp;Humidity;BMP_temperature;BMP_pressure;BME280_temperature;BME280_humidity;BME280_pressure;Samples;Min_cycle;Max_cycle;Signal;HPM_P1;HPM_P2
2022/04/29 00:01:55;;;;;;;17.02;5.57;;;5.50;99.90;;;;;;4875890;29;20101;-79
2022/04/29 00:04:21;;;;;;;13.23;3.75;;;5.40;99.90;;;;;;4878203;29;20131;-79
2022/04/29 00:06:46;;;;;;;11.02;4.18;;;5.40;99.90;;;;;;4877784;29;20060;-79
2022/04/29 00:09:12;;;;;;;11.50;4.15;;;5.40;99.90;;;;;;4861767;29;20052;-79
2022/04/29 00:11:37;;;;;;;18.40;4.07;;;5.40;99.90;;;;;;4878018;29;20056;-79
2022/04/29 00:14:04;;;;;;;18.00;4.28;;;5.40;99.90;;;;;;4877342;29;20053;-79
2022/04/29 00:16:29;;;;;;;10.32;3.47;;;5.40;99.90;;;;;;4861130;29;20071;-79
2022/04/29 00:18:55;;;;;;;15.02;4.05;;;5.30;99.90;;;;;;4877457;29;20040;-79
2022/04/29 00:21:20;;;;;;;15.75;4.35;;;5.30;99.90;;;;;;4861832;29;20143;-79
2022/04/29 00:23:46;;;;;;;12.45;3.88;;;5.30;99.90;;;;;;4876890;29;20048;-79
2022/04/29 00:26:12;;;;;;;9.02;4.13;;;5.30;99.90;;;;;;4861124;29;20044;-79
2022/04/29 00:28:37;;;;;;;10.23;4.40;;;5.40;99.90;;;;;;4878177;29;20070;-79
2022/04/29 00:31:03;;;;;;;13.45;3.67;;;5.40;99.90;;;;;;4875816;29;20437;-78
2022/04/29 00:33:29;;;;;;;14.57;3.90;;;5.30;99.90;;;;;;4877209;29;20177;-79
2022/04/29 00:35:54;;;;;;;9.05;4.10;;;5.30;99.90;;;;;;4876716;29;20092;-79
2022/04/29 00:38:20;;;;;;;10.75;4.45;;;5.30;99.90;;;;;;4876874;29;20128;-79
2022/04/29 00:40:45;;;;;;;12.20;3.92;;;5.30;99.90;;;;;;4877263;29;20052;-79
2022/04/29 00:43:12;;;;;;;17.35;4.43;;;5.40;99.90;;;;;;4877597;29;20063;-79
2022/04/29 00:45:38;;;;;;;21.25;4.20;;;5.40;99.90;;;;;;4875871;29;20045;-79
2022/04/29 00:48:04;;;;;;;12.63;4.45;;;5.40;99.90;;;;;;4877040;29;20576;-79
2022/04/29 00:50:30;;;;;;;13.55;4.13;;;5.40;99.90;;;;;;4876889;29;20060;-79
2022/04/29 00:52:58;;;;;;;14.00;5.38;;;5.40;99.90;;;;;;4876323;29;20151;-79
2022/04/29 00:55:23;;;;;;;9.32;4.18;;;5.40;99.90;;;;;;4877608;29;20063;-78
2022/04/29 00:58:03;;;;;;;12.82;4.18;;;5.40;99.90;;;;;;4876738;29;20048;-78
2022/04/29 01:00:28;;;;;;;19.02;5.22;;;5.30;99.90;;;;;;4876198;29;20465;-79
2022/04/29 01:02:55;;;;;;;14.07;4.57;;;5.40;99.90;;;;;;4877136;29;20055;-79
2022/04/29 01:05:23;;;;;;;14.18;4.35;;;5.30;99.90;;;;;;4861047;29;20587;-79
2022/04/29 01:07:49;;;;;;;13.85;5.00;;;5.50;99.90;;;;;;4877625;29;20461;-79
2022/04/29 01:10:20;;;;;;;12.85;4.95;;;5.20;99.90;;;;;;4877304;29;20123;-78
2022/04/29 01:12:53;;;;;;;13.60;5.25;;;5.10;99.90;;;;;;4876500;29;20051;-79
2022/04/29 01:15:19;;;;;;;11.32;5.35;;;5.10;99.90;;;;;;4876065;29;20107;-79
2022/04/29 01:17:47;;;;;;;14.32;5.45;;;5.10;99.90;;;;;;4861288;29;20053;-79
2022/04/29 01:20:15;;;;;;;10.07;4.55;;;5.00;99.90;;;;;;4876309;29;20045;-79
2022/04/29 01:22:42;;;;;;;13.93;5.20;;;5.00;99.90;;;;;;4877233;29;20131;-79
2022/04/29 01:25:08;;;;;;;15.27;5.38;;;5.00;99.90;;;;;;4876568;29;20394;-79
2022/04/29 01:27:34;;;;;;;12.50;4.82;;;4.90;99.90;;;;;;4876529;29;20473;-79
2022/04/29 01:30:04;;;;;;;11.80;5.18;;;5.00;99.90;;;;;;4876786;29;20064;-79
2022/04/29 01:32:32;;;;;;;14.27;5.50;;;4.90;99.90;;;;;;4875759;29;20048;-79
2022/04/29 01:34:59;;;;;;;15.98;5.70;;;4.90;99.90;;;;;;4875740;29;20503;-79
2022/04/29 01:37:24;;;;;;;12.65;5.07;;;4.80;99.90;;;;;;4876608;29;20056;-80
2022/04/29 01:39:50;;;;;;;13.52;5.80;;;4.80;99.90;;;;;;4860798;29;20044;-80
2022/04/29 01:42:16;;;;;;;14.73;6.07;;;5.10;99.90;;;;;;4860485;29;20143;-80
2022/04/29 01:44:42;;;;;;;15.10;6.00;;;4.70;99.90;;;;;;4876606;29;20053;-79
2022/04/29 01:47:07;;;;;;;12.07;5.40;;;4.80;99.90;;;;;;4875749;29;20056;-79
2022/04/29 01:49:33;;;;;;;17.85;5.80;;;4.70;99.90;;;;;;4875746;29;20052;-79
2022/04/29 01:52:00;;;;;;;13.13;6.25;;;4.70;99.90;;;;;;4860629;29;20108;-80
2022/04/29 01:54:25;;;;;;;16.80;6.00;;;4.70;99.90;;;;;;4875766;29;20116;-79
2022/04/29 01:56:53;;;;;;;9.02;5.50;;;4.90;99.90;;;;;;4875770;29;20597;-80
2022/04/29 01:59:19;;;;;;;17.25;6.78;;;4.70;99.90;;;;;;4876692;29;20048;-80
2022/04/29 02:01:46;;;;;;;13.27;6.97;;;4.80;99.90;;;;;;4874329;29;20048;-80
2022/04/29 02:04:13;;;;;;;9.32;5.97;;;4.80;99.90;;;;;;4860957;29;20053;-79
2022/04/29 02:06:39;;;;;;;15.10;6.78;;;4.70;99.90;;;;;;4860357;29;20108;-79
2022/04/29 02:09:05;;;;;;;13.68;6.78;;;4.70;99.90;;;;;;4875666;29;20056;-79
2022/04/29 02:11:31;;;;;;;13.25;6.50;;;4.70;99.90;;;;;;4891709;29;20059;-79
2022/04/29 02:13:57;;;;;;;13.55;6.95;;;4.70;99.90;;;;;;4875464;29;20127;-79
2022/04/29 02:16:23;;;;;;;14.30;7.15;;;4.70;99.90;;;;;;4874995;29;20140;-79
2022/04/29 02:18:49;;;;;;;14.27;7.18;;;4.80;99.90;;;;;;4875668;29;20079;-79
2022/04/29 02:21:15;;;;;;;14.57;6.68;;;4.80;99.90;;;;;;4876200;29;20135;-79
2022/04/29 02:23:41;;;;;;;14.13;5.75;;;4.80;99.90;;;;;;4876006;29;20123;-79
2022/04/29 02:26:06;;;;;;;14.55;6.50;;;4.80;99.90;;;;;;4875782;29;20111;-80
2022/04/29 02:28:34;;;;;;;9.27;6.18;;;4.80;99.90;;;;;;4876530;29;20075;-79
2022/04/29 02:31:00;;;;;;;11.93;7.47;;;5.20;99.90;;;;;;4873850;29;20059;-79
2022/04/29 02:33:27;;;;;;;17.20;7.80;;;4.80;99.90;;;;;;4876321;29;20429;-79
2022/04/29 02:35:53;;;;;;;13.43;7.28;;;4.90;99.90;;;;;;4875219;29;20410;-79
2022/04/29 02:38:19;;;;;;;18.58;7.45;;;4.90;99.90;;;;;;4875771;29;20064;-79
2022/04/29 02:40:45;;;;;;;23.55;7.75;;;5.00;99.90;;;;;;4875799;29;20057;-79
2022/04/29 02:43:11;;;;;;;14.70;6.85;;;5.00;99.90;;;;;;4875916;29;20095;-79
2022/04/29 02:45:36;;;;;;;15.23;6.90;;;5.10;99.90;;;;;;4859268;29;20469;-80
2022/04/29 02:48:04;;;;;;;13.70;6.80;;;5.20;99.90;;;;;;4875491;29;20045;-79
2022/04/29 02:50:30;;;;;;;12.35;6.68;;;5.20;99.90;;;;;;4876124;29;20065;-80
2022/04/29 02:52:55;;;;;;;12.95;6.18;;;5.30;99.90;;;;;;4875180;29;20116;-80
2022/04/29 02:55:21;;;;;;;13.15;6.60;;;5.30;99.90;;;;;;4875593;29;20556;-80
2022/04/29 02:57:47;;;;;;;7.97;5.65;;;5.30;99.90;;;;;;4894189;29;20064;-79
2022/04/29 03:00:13;;;;;;;12.38;6.20;;;5.30;99.90;;;;;;4895482;29;20056;-79
2022/04/29 03:02:39;;;;;;;16.05;6.60;;;5.30;99.90;;;;;;4879498;29;20044;-80
2022/04/29 03:05:05;;;;;;;12.63;6.82;;;5.30;99.90;;;;;;4878610;29;20382;-79
2022/04/29 03:07:33;;;;;;;14.93;6.53;;;5.40;99.90;;;;;;4879185;29;20059;-79
2022/04/29 03:09:59;;;;;;;16.23;6.68;;;5.40;99.90;;;;;;4878854;29;20116;-79
2022/04/29 03:12:25;;;;;;;12.32;5.95;;;5.40;99.90;;;;;;4877974;29;20049;-79
2022/04/29 03:14:50;;;;;;;19.73;6.60;;;5.40;99.90;;;;;;4878548;29;20051;-79
2022/04/29 03:20:00;;;;;;;15.15;6.07;;;5.50;99.90;;;;;;4877660;29;20123;-79
2022/04/29 03:22:27;;;;;;;15.35;6.38;;;6.10;99.90;;;;;;4879204;29;20048;-80
2022/04/29 03:24:53;;;;;;;13.15;5.80;;;5.50;99.90;;;;;;4878644;29;20059;-80
2022/04/29 03:27:19;;;;;;;11.02;6.57;;;5.50;99.90;;;;;;4877756;29;20421;-79
2022/04/29 03:29:45;;;;;;;15.85;5.93;;;5.50;99.90;;;;;;4878447;29;20052;-80
2022/04/29 03:32:10;;;;;;;14.05;5.60;;;5.50;99.90;;;;;;4877523;29;20048;-79
2022/04/29 03:34:36;;;;;;;15.15;5.85;;;5.50;99.90;;;;;;4878382;29;20048;-79
2022/04/29 03:37:02;;;;;;;16.13;5.80;;;5.50;99.90;;;;;;4878178;29;20809;-79
2022/04/29 03:39:28;;;;;;;15.23;5.80;;;5.50;99.90;;;;;;4862991;29;20056;-79
2022/04/29 03:41:53;;;;;;;14.13;5.93;;;5.50;99.90;;;;;;4877288;29;20076;-79
2022/04/29 03:44:20;;;;;;;15.23;6.47;;;5.50;99.90;;;;;;4878411;29;20045;-80
2022/04/29 03:46:46;;;;;;;10.70;5.72;;;5.50;99.90;;;;;;4877717;29;20489;-80
2022/04/29 03:51:55;;;;;;;12.10;6.47;;;5.60;99.90;;;;;;4877657;29;20071;-79
2022/04/29 03:54:21;;;;;;;14.75;6.78;;;5.50;99.90;;;;;;4877783;29;20497;-80
2022/04/29 03:56:47;;;;;;;13.63;6.22;;;5.60;99.90;;;;;;4877914;29;20128;-79
2022/04/29 03:59:13;;;;;;;11.15;5.55;;;5.60;99.90;;;;;;4878062;29;20052;-80
2022/04/29 04:01:38;;;;;;;12.88;5.78;;;5.60;99.90;;;;;;4877209;29;20048;-80
2022/04/29 04:04:04;;;;;;;15.73;6.68;;;5.60;99.90;;;;;;4877598;29;20045;-79
2022/04/29 04:09:16;;;;;;;10.90;5.97;;;5.60;99.90;;;;;;4877359;29;20093;-79
2022/04/29 04:11:41;;;;;;;13.77;5.50;;;5.60;99.90;;;;;;4863147;29;20048;-79
2022/04/29 04:14:08;;;;;;;10.80;5.47;;;5.70;99.90;;;;;;4877136;29;20112;-80
2022/04/29 04:16:35;;;;;;;16.98;6.22;;;5.70;99.90;;;;;;4876941;29;20048;-79
2022/04/29 04:19:01;;;;;;;15.45;6.35;;;5.70;99.90;;;;;;4894627;29;20080;-79
2022/04/29 04:21:27;;;;;;;12.55;5.88;;;5.80;99.90;;;;;;4878032;29;20045;-80
2022/04/29 04:23:53;;;;;;;12.20;5.90;;;5.70;99.90;;;;;;4876656;29;20044;-79
2022/04/29 04:26:19;;;;;;;14.23;6.00;;;5.70;99.90;;;;;;4878033;29;20059;-80
2022/04/29 04:28:46;;;;;;;12.27;6.25;;;5.70;99.90;;;;;;4877778;29;20085;-80
2022/04/29 04:31:11;;;;;;;12.80;5.70;;;5.80;99.90;;;;;;4879879;29;20400;-80
2022/04/29 04:33:37;;;;;;;11.15;6.07;;;5.80;99.90;;;;;;4881007;29;20048;-81
2022/04/29 04:36:04;;;;;;;13.07;6.03;;;5.80;99.90;;;;;;4898464;29;20051;-81
2022/04/29 04:38:30;;;;;;;12.60;6.10;;;5.80;99.90;;;;;;4880275;29;20055;-81
2022/04/29 04:40:58;;;;;;;11.95;5.90;;;5.80;99.90;;;;;;4895444;29;20188;-81
2022/04/29 04:43:25;;;;;;;13.27;5.65;;;5.80;99.90;;;;;;4895416;29;20059;-80
2022/04/29 04:45:51;;;;;;;15.68;6.10;;;5.90;99.90;;;;;;4895209;29;20146;-81
2022/04/29 04:48:17;;;;;;;11.43;5.63;;;6.10;99.90;;;;;;4895721;29;20055;-81
2022/04/29 04:50:43;;;;;;;11.25;5.72;;;6.00;99.90;;;;;;4879671;29;20488;-81
2022/04/29 04:53:09;;;;;;;13.68;6.07;;;6.00;99.90;;;;;;4873120;29;20047;-81
2022/04/29 04:55:36;;;;;;;17.55;5.93;;;6.10;99.90;;;;;;4861789;29;20067;-80
2022/04/29 04:58:02;;;;;;;8.93;6.53;;;6.10;99.90;;;;;;4875996;29;20123;-81
2022/04/29 05:00:28;;;;;;;17.55;6.32;;;6.20;99.90;;;;;;4875378;29;20535;-80
2022/04/29 05:02:54;;;;;;;18.55;5.78;;;6.30;99.90;;;;;;4876854;29;20040;-81
2022/04/29 05:05:20;;;;;;;17.92;8.38;;;6.40;99.90;;;;;;4860569;29;20859;-81
2022/04/29 05:07:46;;;;;;;14.90;7.60;;;6.60;99.90;;;;;;4893896;29;20048;-80
2022/04/29 05:10:12;;;;;;;14.57;5.68;;;6.70;99.90;;;;;;4861498;29;20048;-80
2022/04/29 05:12:43;;;;;;;12.10;5.88;;;6.80;99.90;;;;;;4876126;29;20151;-81
2022/04/29 05:15:10;;;;;;;12.05;5.70;;;7.00;99.90;;;;;;4891542;29;20071;-81
2022/04/29 05:17:39;;;;;;;13.15;5.55;;;7.10;99.90;;;;;;4876066;29;20524;-81
2022/04/29 05:20:05;;;;;;;12.95;5.88;;;7.20;99.90;;;;;;4875238;29;20260;-81
2022/04/29 05:22:31;;;;;;;12.70;5.82;;;7.30;99.90;;;;;;4876654;29;20121;-80
2022/04/29 05:24:57;;;;;;;14.43;6.22;;;7.50;99.90;;;;;;4876473;29;20052;-81
2022/04/29 05:27:23;;;;;;;8.82;5.22;;;7.50;99.90;;;;;;4876379;29;20102;-81
2022/04/29 05:29:48;;;;;;;13.93;5.85;;;7.60;99.90;;;;;;4876683;29;20059;-81
2022/04/29 05:32:16;;;;;;;15.48;5.90;;;7.60;99.90;;;;;;4876214;29;20048;-81
2022/04/29 05:34:42;;;;;;;17.00;5.32;;;7.60;99.90;;;;;;4875855;29;20385;-81
2022/04/29 05:37:08;;;;;;;15.93;5.45;;;7.70;99.90;;;;;;4876226;29;20140;-81
2022/04/29 05:42:21;;;;;;;10.27;3.88;;;7.80;99.90;;;;;;4893406;29;20124;-81
2022/04/29 05:44:46;;;;;;;17.40;4.70;;;7.90;99.90;;;;;;4893180;29;20049;-81
2022/04/29 05:47:12;;;;;;;13.68;4.97;;;7.90;99.90;;;;;;4875103;29;20052;-81
2022/04/29 05:49:38;;;;;;;11.30;4.70;;;7.90;99.90;;;;;;4877049;29;20505;-81
2022/04/29 05:52:06;;;;;;;11.00;5.15;;;8.00;99.90;;;;;;4876400;29;20401;-81
2022/04/29 05:54:32;;;;;;;15.35;5.28;;;7.90;99.90;;;;;;4875542;29;20124;-81
2022/04/29 05:56:59;;;;;;;9.50;5.03;;;8.00;99.90;;;;;;4876578;29;20632;-80
2022/04/29 05:59:25;;;;;;;9.52;4.53;;;8.00;99.90;;;;;;4892051;29;20374;-81
2022/04/29 06:01:50;;;;;;;18.98;5.82;;;7.90;99.90;;;;;;4874604;29;20059;-81
2022/04/29 06:04:16;;;;;;;14.38;5.05;;;7.90;99.90;;;;;;4876497;29;20047;-80
2022/04/29 06:06:42;;;;;;;15.38;5.57;;;7.90;99.90;;;;;;4876152;29;20049;-80
2022/04/29 06:09:08;;;;;;;16.92;4.88;;;7.90;99.90;;;;;;4875443;29;20059;-81
2022/04/29 06:11:34;;;;;;;15.02;5.15;;;8.00;99.90;;;;;;4875932;29;20045;-81
2022/04/29 06:14:00;;;;;;;13.27;4.78;;;8.00;99.90;;;;;;4876036;29;20405;-81
2022/04/29 06:16:26;;;;;;;9.80;4.55;;;8.00;99.90;;;;;;4875337;29;20389;-81
2022/04/29 06:18:52;;;;;;;11.50;4.55;;;8.10;99.90;;;;;;4875909;29;20040;-80
2022/04/29 06:21:18;;;;;;;17.05;5.18;;;8.20;99.90;;;;;;4876481;29;20120;-81
2022/04/29 06:23:45;;;;;;;12.77;4.53;;;8.50;99.90;;;;;;4875460;29;20049;-81
2022/04/29 06:26:11;;;;;;;17.02;4.70;;;8.30;99.90;;;;;;4876361;29;20041;-81
2022/04/29 06:28:37;;;;;;;11.73;4.40;;;8.30;99.90;;;;;;4875610;29;20052;-81
2022/04/29 06:31:03;;;;;;;12.00;4.07;;;8.40;99.90;;;;;;4876336;29;20132;-81
2022/04/29 06:33:33;;;;;;;13.63;4.07;;;8.40;99.90;;;;;;4864036;29;20037;-81
2022/04/29 06:36:01;;;;;;;10.07;4.15;;;8.40;99.90;;;;;;4879050;29;20119;-80
2022/04/29 06:38:27;;;;;;;10.35;4.25;;;8.50;99.90;;;;;;4864064;29;20054;-80
2022/04/29 06:40:53;;;;;;;10.40;3.45;;;8.50;99.90;;;;;;4878702;29;20056;-80
2022/04/29 06:43:19;;;;;;;11.57;3.42;;;8.60;99.90;;;;;;4863197;29;20404;-80
2022/04/29 06:45:45;;;;;;;24.30;3.70;;;8.70;99.90;;;;;;4877875;29;20057;-80
2022/04/29 06:48:11;;;;;;;9.07;3.53;;;8.70;99.90;;;;;;4886776;29;20040;-80
2022/04/29 06:50:37;;;;;;;13.88;3.35;;;8.90;99.90;;;;;;4886801;29;20584;-81
2022/04/29 06:53:03;;;;;;;9.05;3.40;;;8.80;99.90;;;;;;4884393;29;20036;-81
2022/04/29 06:55:29;;;;;;;8.45;3.70;;;8.90;99.90;;;;;;4870483;29;20555;-80
2022/04/29 06:57:54;;;;;;;7.63;3.30;;;9.20;99.90;;;;;;4869818;29;20041;-80
2022/04/29 07:00:20;;;;;;;9.82;3.88;;;9.10;99.90;;;;;;4871225;29;20040;-80
2022/04/29 07:02:47;;;;;;;8.48;3.30;;;9.20;99.90;;;;;;4869174;29;20040;-80
2022/04/29 07:05:13;;;;;;;13.07;2.97;;;9.30;99.90;;;;;;4873020;29;20072;-81
2022/04/29 07:07:39;;;;;;;8.70;2.10;;;9.40;99.90;;;;;;4893089;29;20580;-81
2022/04/29 07:10:06;;;;;;;9.40;2.42;;;9.50;99.90;;;;;;4902963;29;20155;-81
2022/04/29 07:12:39;;;;;;;10.25;2.67;;;9.50;99.90;;;;;;4888027;29;20056;-81
2022/04/29 07:15:05;;;;;;;12.90;2.85;;;9.80;99.90;;;;;;4884651;29;20493;-82
2022/04/29 07:17:31;;;;;;;8.00;2.15;;;9.60;99.90;;;;;;4906738;29;20147;-81
2022/04/29 07:19:56;;;;;;;11.02;2.70;;;9.50;99.90;;;;;;4889294;29;20075;-82
2022/04/29 07:22:23;;;;;;;6.40;2.10;;;9.50;99.90;;;;;;4887851;29;20044;-82
2022/04/29 07:24:49;;;;;;;11.48;2.22;;;9.50;99.90;;;;;;4888709;29;20100;-81
2022/04/29 07:27:16;;;;;;;12.05;2.28;;;9.60;99.90;;;;;;4865282;29;20052;-82
2022/04/29 07:29:42;;;;;;;17.75;3.42;;;9.50;99.90;;;;;;4898341;29;20512;-82
2022/04/29 07:32:08;;;;;;;7.10;1.80;;;9.40;99.90;;;;;;4889528;29;20090;-82
2022/04/29 07:42:47;;;;;;;6.55;2.10;;;9.30;99.90;;;;;;4901694;29;20256;-83
2022/04/29 07:45:13;;;;;;;8.93;2.38;;;9.30;99.90;;;;;;4884688;29;20056;-82
2022/04/29 07:47:39;;;;;;;8.25;1.95;;;9.30;99.90;;;;;;4871207;29;20464;-82
2022/04/29 07:50:06;;;;;;;12.63;2.80;;;9.30;99.90;;;;;;4885876;29;20087;-82
2022/04/29 07:52:34;;;;;;;6.38;2.38;;;9.40;99.90;;;;;;4887131;29;20036;-82
2022/04/29 07:55:00;;;;;;;8.93;2.00;;;9.50;99.90;;;;;;4862534;29;20144;-81
2022/04/29 07:57:25;;;;;;;8.25;2.38;;;9.60;99.90;;;;;;4875957;29;20044;-81
2022/04/29 07:59:51;;;;;;;8.07;2.00;;;9.70;99.90;;;;;;4892759;29;20063;-81
2022/04/29 08:02:16;;;;;;;9.82;2.10;;;9.80;99.90;;;;;;4874556;29;20052;-81
2022/04/29 08:04:42;;;;;;;9.73;2.10;;;9.90;99.90;;;;;;4876317;29;20100;-82
2022/04/29 08:07:08;;;;;;;6.75;2.10;;;10.00;99.90;;;;;;4874881;29;20056;-82
2022/04/29 08:09:34;;;;;;;6.90;2.22;;;10.00;99.90;;;;;;4875761;29;20041;-82
2022/04/29 08:11:59;;;;;;;5.65;1.77;;;10.10;99.90;;;;;;4875415;29;20052;-81
2022/04/29 08:14:26;;;;;;;7.80;1.80;;;10.20;99.90;;;;;;4874784;29;20148;-81
2022/04/29 08:16:52;;;;;;;5.57;1.70;;;10.40;99.90;;;;;;4861214;29;20080;-82
2022/04/29 08:19:18;;;;;;;6.22;1.77;;;10.30;99.90;;;;;;4878269;29;20079;-82
2022/04/29 08:21:44;;;;;;;7.75;1.90;;;10.30;99.90;;;;;;4865618;29;20057;-82
2022/04/29 08:24:10;;;;;;;12.75;2.35;;;10.40;99.90;;;;;;4875497;29;20109;-82
2022/04/29 08:26:35;;;;;;;5.28;1.50;;;10.60;99.90;;;;;;4858497;29;20482;-82
2022/04/29 08:29:01;;;;;;;8.85;1.80;;;10.70;99.90;;;;;;4874889;29;20060;-82
2022/04/29 08:31:27;;;;;;;8.80;1.80;;;10.50;99.90;;;;;;4858368;29;20434;-82
2022/04/29 08:33:52;;;;;;;4.60;1.70;;;10.60;99.90;;;;;;4875001;29;20041;-82
2022/04/29 08:36:18;;;;;;;6.95;1.65;;;10.70;99.90;;;;;;4858272;29;20048;-82
2022/04/29 08:38:44;;;;;;;12.15;1.77;;;10.60;99.90;;;;;;4858539;29;20049;-82
2022/04/29 08:41:10;;;;;;;8.52;1.75;;;10.70;99.90;;;;;;4861281;29;20136;-82
2022/04/29 08:43:38;;;;;;;11.43;1.90;;;10.60;99.90;;;;;;4905702;29;20119;-82
2022/04/29 08:46:05;;;;;;;9.02;1.85;;;10.70;99.90;;;;;;4901260;29;20575;-82
2022/04/29 08:48:32;;;;;;;9.02;1.73;;;10.70;99.90;;;;;;4868521;29;20048;-82
2022/04/29 08:50:59;;;;;;;6.45;1.73;;;10.80;99.90;;;;;;4885925;29;20080;-82
2022/04/29 08:53:24;;;;;;;9.27;2.00;;;10.70;99.90;;;;;;4868657;29;20151;-82
2022/04/29 08:58:38;;;;;;;7.45;2.00;;;10.80;99.90;;;;;;4886141;29;20052;-83
2022/04/29 09:01:08;;;;;;;11.98;1.88;;;10.80;99.90;;;;;;4862301;29;20059;-83
2022/04/29 09:03:35;;;;;;;5.57;1.35;;;10.50;99.90;;;;;;4887013;29;20111;-83
2022/04/29 09:06:01;;;;;;;8.68;2.08;;;10.50;99.90;;;;;;4884143;29;20044;-82
2022/04/29 09:08:29;;;;;;;4.85;1.70;;;10.50;99.90;;;;;;4876628;29;20037;-82
2022/04/29 09:10:58;;;;;;;9.95;1.67;;;10.60;99.90;;;;;;4892650;29;20130;-83
2022/04/29 09:13:27;;;;;;;7.82;1.85;;;10.60;99.90;;;;;;4882750;29;20584;-82
2022/04/29 09:16:01;;;;;;;5.55;1.70;;;10.90;99.90;;;;;;4887581;29;20489;-82
2022/04/29 09:18:33;;;;;;;9.32;2.03;;;10.70;99.90;;;;;;4876602;29;20072;-82
2022/04/29 09:21:03;;;;;;;7.55;1.88;;;10.70;99.90;;;;;;4881545;29;20048;-82
2022/04/29 09:23:29;;;;;;;8.48;2.70;;;10.70;99.90;;;;;;4887724;29;20064;-82
2022/04/29 09:25:59;;;;;;;10.18;5.00;;;10.70;99.90;;;;;;4864650;29;20084;-82
2022/04/29 09:28:25;;;;;;;8.55;1.70;;;10.70;99.90;;;;;;4881565;29;20457;-83
2022/04/29 09:30:57;;;;;;;4.95;1.27;;;10.80;99.90;;;;;;4900295;29;20095;-83
2022/04/29 09:33:25;;;;;;;4.22;1.33;;;10.80;99.90;;;;;;4876000;29;20057;-82
2022/04/29 09:35:51;;;;;;;8.80;1.75;;;10.80;99.90;;;;;;4883279;29;20548;-83
2022/04/29 09:41:03;;;;;;;7.55;1.73;;;10.90;99.90;;;;;;4882716;29;20071;-82
2022/04/29 09:43:42;;;;;;;6.55;1.70;;;10.90;99.90;;;;;;4885760;29;20044;-82
2022/04/29 09:46:14;;;;;;;11.15;2.50;;;10.80;99.90;;;;;;4901378;29;20398;-82
2022/04/29 09:48:51;;;;;;;4.72;1.70;;;10.80;99.90;;;;;;4891286;29;20135;-82
2022/04/29 09:51:42;;;;;;;11.77;2.00;;;10.70;99.90;;;;;;4883423;29;20056;-82
2022/04/29 09:54:10;;;;;;;4.95;1.77;;;10.80;99.90;;;;;;4884527;29;20048;-81
2022/04/29 09:56:36;;;;;;;5.07;1.83;;;10.70;99.90;;;;;;4910188;29;20451;-83
2022/04/29 09:59:02;;;;;;;5.20;1.70;;;10.70;99.90;;;;;;4889211;29;20559;-80
2022/04/29 10:01:29;;;;;;;8.52;2.22;;;11.10;99.90;;;;;;4899148;29;20044;-81
2022/04/29 10:03:55;;;;;;;11.57;2.00;;;10.60;99.90;;;;;;4879187;29;20079;-82
2022/04/29 10:06:23;;;;;;;9.80;2.08;;;10.50;99.90;;;;;;4904816;29;20051;-83
2022/04/29 10:08:51;;;;;;;3.78;1.58;;;10.80;99.90;;;;;;4895596;29;20132;-83
2022/04/29 10:11:21;;;;;;;6.03;1.35;;;10.40;99.90;;;;;;4883862;29;20080;-81
2022/04/29 10:13:48;;;;;;;7.85;1.88;;;10.40;99.90;;;;;;4909824;29;20045;-82
2022/04/29 10:16:17;;;;;;;9.18;2.10;;;10.70;99.90;;;;;;4876063;29;20052;-83
2022/04/29 10:21:38;;;;;;;5.18;1.50;;;10.60;99.90;;;;;;4876118;29;20067;-83
2022/04/29 10:24:04;;;;;;;5.90;2.08;;;10.70;99.90;;;;;;4897143;29;20135;-84
2022/04/29 10:26:30;;;;;;;12.07;2.55;;;10.70;99.90;;;;;;4887185;29;20098;-83
2022/04/29 10:28:57;;;;;;;7.93;2.75;;;10.80;99.90;;;;;;4847903;29;20072;-83
2022/04/29 10:31:23;;;;;;;7.20;2.30;;;10.70;99.90;;;;;;4867528;29;20109;-83
2022/04/29 10:33:49;;;;;;;7.68;2.40;;;10.90;99.90;;;;;;4861173;29;20568;-82
2022/04/29 10:36:16;;;;;;;8.88;1.98;;;10.70;99.90;;;;;;4860831;29;20053;-85
2022/04/29 10:38:46;;;;;;;8.52;2.22;;;10.60;99.90;;;;;;4873474;29;20056;-83
2022/04/29 10:41:20;;;;;;;12.35;3.15;;;11.10;99.90;;;;;;4886434;29;20052;-83
2022/04/29 10:43:51;;;;;;;7.75;2.28;;;10.70;99.90;;;;;;4896077;29;20052;-81
2022/04/29 10:46:23;;;;;;;9.95;2.05;;;10.70;99.90;;;;;;4881828;29;20055;-81
2022/04/29 10:48:50;;;;;;;10.15;3.10;;;10.80;99.90;;;;;;4876906;29;20056;-81
2022/04/29 10:51:21;;;;;;;6.68;3.03;;;10.80;99.90;;;;;;4889278;29;20044;-81
2022/04/29 10:53:50;;;;;;;16.80;2.95;;;10.70;99.90;;;;;;4880716;29;20142;-81
2022/04/29 10:56:37;;;;;;;9.30;2.80;;;10.90;99.90;;;;;;4885633;29;20051;-81
2022/04/29 10:59:05;;;;;;;6.03;2.50;;;10.80;99.90;;;;;;4880568;29;20108;-82
2022/04/29 11:01:34;;;;;;;8.80;2.22;;;10.80;99.90;;;;;;4885507;29;20564;-81
2022/04/29 11:04:07;;;;;;;5.78;2.42;;;10.70;99.90;;;;;;4911624;29;20127;-81
2022/04/29 11:06:37;;;;;;;;;;;10.80;99.90;;;;;;4880573;29;20540;-81
2022/04/29 11:09:23;;;;;;;12.32;3.20;;;10.70;99.90;;;;;;4872846;29;19927;-81
2022/04/29 11:11:49;;;;;;;8.73;2.17;;;10.80;99.90;;;;;;4885077;29;20088;-81
2022/04/29 11:14:15;;;;;;;5.88;1.52;;;10.80;99.90;;;;;;4892704;29;20052;-81
2022/04/29 11:16:55;;;;;;;4.90;1.75;;;10.80;99.90;;;;;;4894850;29;20071;-81
2022/04/29 11:19:25;;;;;;;7.25;1.98;;;10.70;99.90;;;;;;4894665;29;20075;-80
2022/04/29 11:24:46;;;;;;;4.25;1.75;;;10.80;99.90;;;;;;4894553;29;20052;-81
2022/04/29 11:27:12;;;;;;;9.93;1.80;;;10.90;99.90;;;;;;4896857;29;20058;-82
2022/04/29 11:29:45;;;;;;;7.18;2.10;;;11.10;99.90;;;;;;4882050;29;20040;-82
2022/04/29 11:32:11;;;;;;;;;;;11.30;99.90;;;;;;4880569;29;20138;-80
2022/04/29 11:34:53;;;;;;;5.20;1.77;;;11.30;99.90;;;;;;4897840;29;20015;-82
2022/04/29 11:37:26;;;;;;;9.77;1.70;;;11.50;99.90;;;;;;4881654;29;20404;-82
2022/04/29 11:39:54;;;;;;;;;;;11.50;99.90;;;;;;4896410;29;20500;-82
2022/04/29 11:42:20;;;;;;;5.65;1.98;;;11.50;99.90;;;;;;4884777;29;19927;-83
2022/04/29 11:44:46;;;;;;;4.80;1.35;;;11.40;99.90;;;;;;4876274;29;20056;-83
2022/04/29 11:47:13;;;;;;;10.48;1.60;;;11.70;99.90;;;;;;4858441;29;20052;-82
2022/04/29 11:49:39;;;;;;;8.30;1.88;;;11.30;99.90;;;;;;4859345;29;20049;-81
2022/04/29 11:52:26;;;;;;;6.80;1.95;;;11.20;99.90;;;;;;4874637;29;20116;-80
2022/04/29 11:54:53;;;;;;;11.05;1.90;;;11.10;99.90;;;;;;4859376;29;20493;-79
2022/04/29 11:57:20;;;;;;;8.10;1.70;;;11.20;99.90;;;;;;4876282;29;20377;-80
2022/04/29 11:59:46;;;;;;;6.25;1.60;;;11.30;99.90;;;;;;4884567;29;20132;-82
2022/04/29 12:02:17;;;;;;;7.88;1.98;;;11.40;99.90;;;;;;4884901;29;20500;-82
2022/04/29 12:04:55;;;;;;;6.47;1.83;;;11.40;99.90;;;;;;4883018;29;20128;-82
2022/04/29 12:07:22;;;;;;;6.45;1.92;;;11.50;99.90;;;;;;4884855;29;20048;-82
2022/04/29 12:09:47;;;;;;;5.47;1.80;;;11.60;99.90;;;;;;4903129;29;20051;-82
2022/04/29 12:12:25;;;;;;;8.15;1.92;;;11.60;99.90;;;;;;4871268;29;20052;-81
2022/04/29 12:14:51;;;;;;;7.28;1.70;;;11.70;99.90;;;;;;4901476;29;20084;-81
2022/04/29 12:17:17;;;;;;;8.45;1.80;;;11.80;99.90;;;;;;4888295;29;20107;-81
2022/04/29 12:19:42;;;;;;;9.07;2.13;;;11.80;99.90;;;;;;4887060;29;20048;-83
2022/04/29 12:22:09;;;;;;;4.65;1.40;;;11.80;99.90;;;;;;4885554;29;20068;-83
2022/04/29 12:24:42;;;;;;;10.50;1.90;;;11.90;99.90;;;;;;4888183;29;20044;-82
2022/04/29 12:27:09;;;;;;;9.30;2.00;;;12.00;99.90;;;;;;4877618;29;20088;-82
2022/04/29 12:29:38;;;;;;;6.32;1.90;;;12.00;99.90;;;;;;4885200;29;20063;-83
2022/04/29 12:35:09;;;;;;;8.73;1.80;;;11.90;99.90;;;;;;4880416;29;20067;-81
2022/04/29 12:37:35;;;;;;;7.80;2.08;;;11.80;99.90;;;;;;4894369;29;20056;-80
2022/04/29 12:40:08;;;;;;;6.88;2.22;;;11.80;99.90;;;;;;4912677;29;20061;-80
2022/04/29 12:42:34;;;;;;;8.48;1.92;;;11.90;99.90;;;;;;4902326;29;20511;-81
2022/04/29 12:45:14;;;;;;;8.15;1.95;;;12.00;99.90;;;;;;4873558;29;20061;-81
2022/04/29 12:47:41;;;;;;;7.25;2.05;;;12.10;99.90;;;;;;4888467;29;20056;-80
2022/04/29 12:50:28;;;;;;;6.90;1.80;;;12.20;99.90;;;;;;4887970;29;20112;-81
2022/04/29 12:52:57;;;;;;;8.05;1.83;;;12.20;99.90;;;;;;4887107;29;20088;-81
2022/04/29 12:55:23;;;;;;;13.40;2.50;;;12.10;99.90;;;;;;4886586;29;20125;-79
2022/04/29 12:57:49;;;;;;;10.45;1.70;;;12.00;99.90;;;;;;4887777;29;20047;-80
2022/04/29 13:00:24;;;;;;;5.32;1.90;;;11.90;99.90;;;;;;4902468;29;20059;-80
2022/04/29 13:03:00;;;;;;;7.35;1.73;;;11.70;99.90;;;;;;4903163;29;20874;-80
2022/04/29 13:05:27;;;;;;;5.50;2.13;;;11.70;99.90;;;;;;4891092;29;20048;-80
2022/04/29 13:07:53;;;;;;;17.77;1.77;;;11.80;99.90;;;;;;4890545;29;20044;-83
2022/04/29 13:10:19;;;;;;;6.10;1.60;;;11.80;99.90;;;;;;4885095;29;20615;-81
2022/04/29 13:12:45;;;;;;;6.80;1.48;;;11.80;99.90;;;;;;4886972;29;20049;-81
2022/04/29 13:15:12;;;;;;;5.15;1.77;;;11.80;99.90;;;;;;4901383;29;20059;-81
2022/04/29 13:17:38;;;;;;;7.53;1.75;;;11.90;99.90;;;;;;4894138;29;20057;-80
2022/04/29 13:20:05;;;;;;;4.57;1.40;;;11.90;99.90;;;;;;4879577;29;20408;-80
2022/04/29 13:22:31;;;;;;;6.60;1.58;;;12.00;99.90;;;;;;4880500;29;20454;-80